Time;durP1;ratioP1;P1;durP2;ratioP2;P2;SDS_P1;SDS_P2;PMS_P1;PMS_P2;Temp;Humidity;BMP_temperature;BMP_pressure;BME280_temperature;BME280_humidity;BME280_pressure;Samples;Min_cycle;Max_cycle;Signal;HPM_P1;HPM_P2
2023/04/02 07:37:01;;;;;;;3.42;1.67;;;17.20;57.20;;;;;;5254910;22;45448;-77
2023/04/02 07:39:28;;;;;;;1.80;1.17;;;17.30;61.00;;;;;;5066070;28;45250;-78
2023/04/02 07:41:57;;;;;;;1.70;1.10;;;17.30;63.10;;;;;;5066162;28;45244;-77
2023/04/02 07:44:23;;;;;;;2.28;1.10;;;17.40;63.50;;;;;;5066414;28;45163;-78
2023/04/02 07:46:50;;;;;;;3.47;1.30;;;17.40;63.60;;;;;;5066045;28;45457;-77
2023/04/02 07:49:17;;;;;;;1.20;1.10;;;17.50;63.50;;;;;;5066238;28;45154;-78
2023/04/02 07:51:44;;;;;;;1.70;1.10;;;17.50;62.90;;;;;;5066166;28;45243;-79
2023/04/02 07:54:12;;;;;;;2.03;1.38;;;17.50;63.20;;;;;;5066595;28;45115;-80
2023/04/02 07:56:39;;;;;;;2.83;1.25;;;17.50;62.90;;;;;;5066245;28;46577;-79
2023/04/02 07:59:06;;;;;;;3.28;0.90;;;17.50;62.80;;;;;;5066003;28;45187;-78
2023/04/02 08:01:34;;;;;;;3.53;1.33;;;17.50;62.80;;;;;;5065854;28;45395;-77
2023/04/02 08:04:02;;;;;;;2.17;1.30;;;17.50;62.70;;;;;;5065869;28;45440;-78
2023/04/02 08:06:29;;;;;;;1.60;1.23;;;17.50;62.60;;;;;;5066389;28;47021;-78
2023/04/02 08:08:56;;;;;;;1.98;1.30;;;17.50;62.90;;;;;;5065611;28;45243;-77
2023/04/02 08:11:25;;;;;;;2.25;1.25;;;17.50;63.10;;;;;;5057593;28;45443;-77
2023/04/02 08:13:52;;;;;;;1.38;1.00;;;17.50;62.90;;;;;;5066007;28;45077;-78
2023/04/02 08:16:19;;;;;;;1.98;1.33;;;17.50;62.80;;;;;;5065745;28;46068;-78
2023/04/02 08:18:46;;;;;;;2.10;1.20;;;17.50;62.80;;;;;;5065709;28;46297;-78
2023/04/02 08:21:13;;;;;;;1.65;1.25;;;17.50;62.90;;;;;;5066356;28;45182;-77
2023/04/02 08:23:40;;;;;;;3.47;1.20;;;17.50;63.00;;;;;;5065558;28;45147;-67
2023/04/02 08:26:07;;;;;;;1.90;1.20;;;17.50;62.90;;;;;;5065572;28;45243;-79
2023/04/02 08:28:35;;;;;;;2.85;1.20;;;17.50;62.40;;;;;;5065065;28;45292;-79
2023/04/02 08:31:03;;;;;;;3.10;1.38;;;17.40;61.40;;;;;;5065615;28;45194;-78
2023/04/02 08:33:30;;;;;;;1.75;1.00;;;17.40;61.30;;;;;;5066832;28;45390;-70
2023/04/02 08:35:57;;;;;;;6.78;1.65;;;17.30;61.00;;;;;;5067495;28;47345;-81
2023/04/02 08:38:26;;;;;;;3.47;1.30;;;17.30;60.90;;;;;;5069064;28;45082;-81
2023/04/02 08:40:56;;;;;;;4.47;1.23;;;17.30;60.20;;;;;;5068732;28;45214;-80
2023/04/02 08:43:50;;;;;;;4.50;1.23;;;17.30;60.00;;;;;;5069427;28;45436;-79
2023/04/02 08:46:23;;;;;;;2.92;1.58;;;17.30;58.90;;;;;;5068695;28;46392;-79
2023/04/02 08:48:55;;;;;;;2.22;1.20;;;17.40;58.30;;;;;;5068755;28;45205;-79
2023/04/02 08:51:25;;;;;;;1.55;1.23;;;17.30;58.00;;;;;;5068832;28;45374;-78
2023/04/02 08:53:55;;;;;;;2.25;0.93;;;17.30;57.60;;;;;;5068849;28;45579;-78
2023/04/02 08:56:29;;;;;;;3.15;1.42;;;17.40;58.00;;;;;;5068309;28;47881;-79
2023/04/02 08:59:01;;;;;;;4.10;1.13;;;17.30;58.20;;;;;;5066029;28;45190;-79
2023/04/02 09:01:36;;;;;;;1.98;1.20;;;17.40;58.20;;;;;;5068558;28;45104;-79
2023/04/02 09:04:06;;;;;;;2.53;1.20;;;17.40;58.20;;;;;;5068971;28;45231;-78
2023/04/02 09:06:33;;;;;;;3.40;1.20;;;17.40;58.50;;;;;;5068376;28;46153;-78
2023/04/02 09:09:00;;;;;;;2.35;1.10;;;17.40;58.40;;;;;;5068430;28;45151;-78
2023/04/02 09:11:35;;;;;;;1.83;1.00;;;17.40;58.70;;;;;;5068771;28;45120;-79
2023/04/02 09:14:10;;;;;;;2.70;1.30;;;17.40;58.80;;;;;;5068544;28;45228;-78
2023/04/02 09:16:43;;;;;;;3.70;1.05;;;17.40;59.10;;;;;;5069595;28;47108;-78
2023/04/02 09:19:20;;;;;;;1.27;1.05;;;17.40;59.00;;;;;;5069273;28;45338;-79
2023/04/02 09:22:00;;;;;;;2.15;1.33;;;17.40;58.90;;;;;;5068901;28;45145;-78
2023/04/02 09:24:27;;;;;;;1.65;1.13;;;17.40;58.90;;;;;;5068711;28;45225;-77
2023/04/02 09:26:54;;;;;;;1.73;1.13;;;17.40;58.90;;;;;;5068643;28;46751;-78
2023/04/02 09:29:54;;;;;;;3.28;1.08;;;17.40;58.50;;;;;;5067490;28;45325;-68
2023/04/02 09:32:44;;;;;;;2.38;0.93;;;17.40;59.30;;;;;;4984059;28;45281;-74
2023/04/02 09:35:14;;;;;;;2.80;1.15;;;17.40;60.00;;;;;;5043838;28;45256;-75
2023/04/02 09:37:42;;;;;;;1.58;1.00;;;17.40;60.00;;;;;;5047565;28;46484;-75
2023/04/02 09:40:26;;;;;;;2.03;1.00;;;17.40;59.80;;;;;;5047929;28;45233;-75
2023/04/02 09:43:06;;;;;;;1.48;1.05;;;17.40;59.90;;;;;;5048125;28;45181;-75
2023/04/02 09:45:34;;;;;;;2.92;0.90;;;17.40;59.80;;;;;;5048107;28;45304;-75
2023/04/02 09:48:01;;;;;;;1.20;0.80;;;17.40;59.60;;;;;;5047578;28;46083;-74
2023/04/02 09:50:30;;;;;;;1.10;0.90;;;17.40;59.70;;;;;;5048144;28;45277;-75
2023/04/02 09:52:58;;;;;;;1.92;0.80;;;17.40;59.70;;;;;;5048098;28;45321;-75
2023/04/02 09:55:27;;;;;;;1.85;1.02;;;17.40;59.60;;;;;;5047506;28;45148;-75
2023/04/02 09:58:11;;;;;;;3.20;1.05;;;17.40;59.50;;;;;;5047449;28;46837;-75
2023/04/02 10:00:40;;;;;;;1.83;0.88;;;17.40;59.40;;;;;;5047659;28;45229;-75
2023/04/02 10:03:21;;;;;;;1.67;0.93;;;17.40;59.10;;;;;;5047798;28;45211;-75
2023/04/02 10:05:49;;;;;;;1.58;0.60;;;17.40;58.90;;;;;;5047705;28;45455;-75
2023/04/02 10:08:20;;;;;;;1.42;0.82;;;17.40;59.50;;;;;;5047480;28;48074;-75
2023/04/02 10:10:50;;;;;;;1.60;0.85;;;17.40;59.20;;;;;;5047504;28;45142;-73
2023/04/02 10:13:26;;;;;;;1.25;0.90;;;17.40;59.10;;;;;;5044545;28;45211;-74
2023/04/02 10:16:01;;;;;;;3.20;1.00;;;17.40;59.20;;;;;;5047778;28;45229;-74
2023/04/02 10:18:38;;;;;;;1.67;0.90;;;17.40;58.80;;;;;;5046980;28;45653;-74
2023/04/02 10:21:07;;;;;;;1.13;0.75;;;17.40;58.90;;;;;;5047639;28;45123;-75
2023/04/02 10:23:35;;;;;;;1.13;0.80;;;17.40;59.20;;;;;;5047577;28;45336;-74
2023/04/02 10:26:15;;;;;;;2.08;0.77;;;17.40;58.90;;;;;;5047458;28;45371;-74
2023/04/02 10:28:55;;;;;;;1.95;0.90;;;17.40;58.80;;;;;;5044542;28;46665;-74
2023/04/02 10:31:27;;;;;;;1.20;0.60;;;17.40;58.70;;;;;;5044205;28;45210;-74
2023/04/02 10:34:01;;;;;;;1.17;0.77;;;17.50;58.80;;;;;;5047275;28;45230;-74
2023/04/02 10:36:42;;;;;;;0.82;0.60;;;17.50;59.00;;;;;;5046897;28;45164;-74
2023/04/02 10:39:15;;;;;;;0.68;0.60;;;17.50;58.90;;;;;;5046981;28;46846;-74
2023/04/02 10:41:52;;;;;;;0.93;0.50;;;17.50;59.00;;;;;;5047389;28;45309;-74
2023/04/02 10:44:40;;;;;;;0.50;0.50;;;17.50;58.90;;;;;;5047210;28;45227;-75
2023/04/02 10:47:26;;;;;;;1.67;0.70;;;17.50;58.80;;;;;;5047412;28;45361;-75
2023/04/02 10:50:05;;;;;;;2.03;0.70;;;17.50;58.80;;;;;;5046664;28;45695;-74
2023/04/02 10:52:39;;;;;;;0.40;0.40;;;17.50;58.80;;;;;;5046878;28;45997;-75
2023/04/02 10:55:16;;;;;;;0.98;0.63;;;17.50;59.00;;;;;;5047060;28;45299;-74
2023/04/02 10:57:44;;;;;;;1.20;0.65;;;17.50;59.10;;;;;;5046434;28;45313;-74
2023/04/02 11:00:21;;;;;;;0.65;0.55;;;17.40;59.00;;;;;;5046585;28;46827;-74
2023/04/02 11:02:54;;;;;;;0.75;0.50;;;17.40;59.10;;;;;;5046942;28;45293;-74
2023/04/02 11:05:29;;;;;;;0.68;0.60;;;17.40;59.10;;;;;;5047265;28;45216;-74
2023/04/02 11:08:02;;;;;;;1.00;0.70;;;17.40;59.30;;;;;;5046809;28;45265;-73
2023/04/02 11:10:33;;;;;;;1.02;0.70;;;17.40;59.20;;;;;;5046535;28;47531;-73
2023/04/02 11:13:09;;;;;;;1.17;0.60;;;17.40;59.30;;;;;;5046727;28;45186;-73
2023/04/02 11:15:37;;;;;;;1.83;0.70;;;17.40;59.30;;;;;;5046852;28;45207;-73
2023/04/02 11:18:05;;;;;;;0.70;0.60;;;17.40;59.60;;;;;;5046772;28;45554;-73
2023/04/02 11:21:06;;;;;;;1.90;0.65;;;17.40;59.60;;;;;;5046214;28;46969;-73
2023/04/02 11:23:39;;;;;;;1.15;0.60;;;17.40;59.00;;;;;;5046810;28;45181;-74
2023/04/02 11:26:48;;;;;;;3.15;0.70;;;17.30;58.60;;;;;;5046403;28;45219;-74
2023/04/02 11:29:24;;;;;;;0.35;0.35;;;17.30;58.20;;;;;;5046155;28;45438;-74
2023/04/02 11:32:26;;;;;;;1.58;0.90;;;17.30;58.00;;;;;;5046112;28;45851;-74
2023/04/02 11:35:35;;;;;;;0.75;0.60;;;17.30;57.60;;;;;;5046157;28;46192;-74
2023/04/02 11:38:03;;;;;;;1.75;0.70;;;17.20;57.00;;;;;;5045702;28;45164;-74
2023/04/02 11:40:58;;;;;;;1.63;0.60;;;17.20;57.50;;;;;;5046689;28;45195;-74
2023/04/02 11:43:51;;;;;;;0.60;0.55;;;17.20;56.60;;;;;;5037770;28;46438;-73
2023/04/02 11:46:47;;;;;;;1.92;0.65;;;17.20;58.00;;;;;;5042981;28;45277;-74
2023/04/02 11:49:35;;;;;;;0.68;0.40;;;17.20;56.70;;;;;;5045472;28;45169;-74
2023/04/02 11:52:03;;;;;;;1.95;0.68;;;17.20;56.70;;;;;;5046325;28;45222;-74
2023/04/02 11:54:34;;;;;;;1.20;0.63;;;17.20;56.70;;;;;;5045727;28;47584;-75
2023/04/02 11:57:12;;;;;;;1.67;0.80;;;17.20;56.80;;;;;;5045714;28;45230;-68
2023/04/02 11:59:47;;;;;;;1.75;0.63;;;17.20;56.70;;;;;;5050621;28;45398;-69
2023/04/02 12:02:21;;;;;;;4.25;1.10;;;17.30;60.70;;;;;;5050731;28;45287;-74
2023/04/02 12:05:03;;;;;;;3.28;1.10;;;17.40;62.30;;;;;;5059197;28;46722;-74
2023/04/02 12:08:04;;;;;;;1.02;0.60;;;17.30;60.80;;;;;;5061965;28;45502;-74
2023/04/02 12:10:33;;;;;;;1.58;0.80;;;17.30;60.90;;;;;;5057687;28;45458;-74
2023/04/02 12:13:00;;;;;;;1.45;0.68;;;17.30;61.10;;;;;;5066763;28;45402;-74
2023/04/02 12:15:36;;;;;;;1.35;0.70;;;17.20;61.70;;;;;;5064548;28;46756;-74
2023/04/02 12:18:10;;;;;;;1.38;0.80;;;17.20;61.70;;;;;;5060821;28;45644;-74
2023/04/02 12:20:38;;;;;;;0.50;0.50;;;17.20;61.90;;;;;;5062463;28;45424;-74
2023/04/02 12:23:06;;;;;;;1.08;0.60;;;17.20;62.10;;;;;;5059525;28;45392;-74
2023/04/02 12:25:39;;;;;;;2.42;0.70;;;17.20;62.20;;;;;;5055047;28;46739;-74
2023/04/02 12:28:16;;;;;;;1.42;0.80;;;17.20;62.40;;;;;;5069029;28;45568;-74
2023/04/02 12:30:44;;;;;;;0.82;0.50;;;17.20;62.80;;;;;;5075274;28;45454;-74
2023/04/02 12:33:29;;;;;;;0.82;0.60;;;17.20;63.10;;;;;;5068479;28;45185;-74
2023/04/02 12:35:59;;;;;;;1.38;0.63;;;17.30;63.50;;;;;;5058485;28;45373;-74
2023/04/02 12:38:27;;;;;;;1.15;0.57;;;17.30;63.30;;;;;;5063744;28;45277;-74
2023/04/02 12:40:55;;;;;;;1.33;0.60;;;17.30;63.60;;;;;;5051676;28;45654;-74
2023/04/02 12:43:27;;;;;;;1.33;0.65;;;17.30;63.30;;;;;;5067060;28;45390;-74
2023/04/02 12:45:55;;;;;;;0.82;0.57;;;17.30;63.60;;;;;;5056778;28;46019;-74
2023/04/02 12:48:23;;;;;;;1.38;0.57;;;17.30;63.50;;;;;;5063471;28;45269;-75
2023/04/02 12:50:50;;;;;;;0.55;0.40;;;17.30;63.50;;;;;;5066205;28;45284;-71
2023/04/02 12:53:22;;;;;;;0.93;0.45;;;17.30;63.70;;;;;;5057060;28;45340;-74
2023/04/02 12:55:50;;;;;;;0.85;0.50;;;17.30;63.60;;;;;;5055018;28;48196;-74
2023/04/02 12:58:37;;;;;;;1.60;0.70;;;17.30;63.60;;;;;;5066151;28;45307;-74
2023/04/02 13:01:15;;;;;;;1.20;0.60;;;17.30;64.60;;;;;;5060673;28;45362;-74
2023/04/02 13:03:41;;;;;;;0.60;0.60;;;17.30;63.80;;;;;;5057930;28;45574;-74
2023/04/02 13:06:23;;;;;;;1.13;0.70;;;17.30;63.90;;;;;;5058088;28;47285;-74
2023/04/02 13:08:51;;;;;;;1.58;0.63;;;17.30;63.60;;;;;;5058180;28;45524;-74
2023/04/02 13:11:18;;;;;;;1.40;0.38;;;17.30;63.70;;;;;;5064760;28;45397;-74
2023/04/02 13:13:47;;;;;;;1.70;0.50;;;17.30;64.00;;;;;;5064732;28;45518;-74
2023/04/02 13:16:27;;;;;;;1.17;0.47;;;17.30;64.00;;;;;;5066692;28;46271;-74
2023/04/02 13:19:10;;;;;;;0.50;0.50;;;17.30;64.00;;;;;;5059262;28;45408;-74
2023/04/02 13:21:37;;;;;;;0.98;0.60;;;17.30;64.30;;;;;;5067344;28;45281;-75
2023/04/02 13:24:15;;;;;;;0.73;0.60;;;17.40;64.30;;;;;;5064713;28;45512;-75
2023/04/02 13:26:42;;;;;;;1.08;0.60;;;17.30;64.00;;;;;;5063838;28;47977;-74
2023/04/02 13:29:23;;;;;;;0.57;0.52;;;17.30;64.50;;;;;;5061086;28;45396;-70
2023/04/02 13:31:50;;;;;;;2.97;0.60;;;17.40;64.00;;;;;;5059268;28;45540;-73
2023/04/02 13:34:17;;;;;;;1.00;0.50;;;17.40;64.40;;;;;;5062275;28;45448;-74
2023/04/02 13:36:44;;;;;;;1.92;0.70;;;17.40;63.90;;;;;;5054962;28;45490;-74
2023/04/02 13:39:12;;;;;;;0.35;0.35;;;17.40;63.90;;;;;;5059514;28;45995;-74
2023/04/02 13:41:42;;;;;;;0.70;0.57;;;17.30;63.80;;;;;;5065446;28;45429;-74
2023/04/02 13:44:18;;;;;;;0.98;0.63;;;17.30;64.00;;;;;;5059215;28;45247;-74
2023/04/02 13:46:45;;;;;;;1.15;0.60;;;17.30;63.90;;;;;;5065192;28;47366;-74
2023/04/02 13:49:11;;;;;;;0.63;0.40;;;17.30;64.10;;;;;;5059355;28;45452;-74
2023/04/02 13:51:43;;;;;;;1.63;0.80;;;17.30;63.90;;;;;;5057134;28;45480;-74
2023/04/02 13:54:17;;;;;;;1.17;0.50;;;17.30;64.30;;;;;;5060567;28;45553;-74
2023/04/02 13:56:44;;;;;;;0.82;0.50;;;17.30;64.30;;;;;;5054357;28;47259;-73
2023/04/02 13:59:11;;;;;;;0.98;0.57;;;17.30;64.30;;;;;;5059477;28;45528;-73
2023/04/02 14:01:38;;;;;;;1.10;0.60;;;17.30;64.20;;;;;;5063343;28;45578;-73
2023/04/02 14:04:06;;;;;;;0.50;0.40;;;17.30;64.10;;;;;;5064285;28;45301;-74
2023/04/02 14:07:02;;;;;;;0.77;0.40;;;17.30;64.30;;;;;;5064346;28;46566;-74
2023/04/02 14:09:41;;;;;;;0.60;0.45;;;17.30;64.30;;;;;;5051168;28;45174;-74
2023/04/02 14:12:18;;;;;;;1.05;0.60;;;17.40;64.60;;;;;;5066105;28;45245;-73
2023/04/02 14:14:59;;;;;;;0.93;0.60;;;17.30;63.60;;;;;;5066381;28;45202;-74
2023/04/02 14:17:37;;;;;;;1.00;0.60;;;17.30;64.00;;;;;;5064978;28;46699;-73
2023/04/02 14:20:15;;;;;;;0.57;0.50;;;17.30;63.60;;;;;;5060304;28;45335;-74
2023/04/02 14:22:56;;;;;;;0.90;0.50;;;17.20;63.80;;;;;;5047167;28;45196;-74
2023/04/02 14:25:30;;;;;;;1.10;0.50;;;17.20;64.00;;;;;;5046184;28;45247;-74
2023/04/02 14:28:06;;;;;;;0.85;0.52;;;17.20;64.00;;;;;;5065320;28;45353;-73
2023/04/02 14:30:42;;;;;;;1.38;0.50;;;17.20;64.00;;;;;;5063247;28;45247;-74
2023/04/02 14:33:18;;;;;;;1.70;0.60;;;17.20;64.00;;;;;;5060076;28;45254;-73
2023/04/02 14:35:48;;;;;;;1.00;0.70;;;17.20;63.90;;;;;;5046608;28;45128;-74
2023/04/02 14:38:21;;;;;;;0.55;0.55;;;17.20;64.30;;;;;;5054538;28;48745;-74
2023/04/02 14:40:52;;;;;;;1.65;0.50;;;17.20;65.20;;;;;;5052284;28;45345;-74
2023/04/02 14:43:23;;;;;;;1.35;0.50;;;17.20;65.20;;;;;;5045770;28;45247;-74
2023/04/02 14:45:58;;;;;;;0.40;0.40;;;17.20;66.30;;;;;;5058160;28;45296;-74
2023/04/02 14:48:37;;;;;;;0.68;0.50;;;17.20;65.20;;;;;;5065684;28;47097;-73
2023/04/02 14:51:07;;;;;;;0.80;0.40;;;17.20;65.00;;;;;;5065824;28;45435;-74
2023/04/02 14:53:42;;;;;;;2.58;0.50;;;17.20;65.20;;;;;;5065629;28;45457;-73
2023/04/02 14:56:14;;;;;;;1.38;0.57;;;17.20;65.10;;;;;;5065678;28;45370;-74
2023/04/02 14:58:45;;;;;;;0.77;0.47;;;17.20;64.80;;;;;;5062990;28;46499;-74
2023/04/02 15:01:17;;;;;;;0.55;0.45;;;17.20;64.90;;;;;;5045257;28;45596;-74
2023/04/02 15:03:52;;;;;;;0.40;0.30;;;17.20;64.20;;;;;;5065583;28;45329;-73
2023/04/02 15:06:23;;;;;;;1.52;0.50;;;17.20;64.30;;;;;;5057485;28;45432;-74
2023/04/02 15:08:53;;;;;;;1.48;0.57;;;17.20;64.00;;;;;;5054807;28;46186;-74
2023/04/02 15:11:29;;;;;;;1.42;0.50;;;17.20;64.30;;;;;;5057186;28;45213;-74
2023/04/02 15:14:01;;;;;;;1.55;0.60;;;17.20;64.20;;;;;;5045920;28;45380;-74
2023/04/02 15:16:27;;;;;;;1.63;0.60;;;17.20;63.80;;;;;;5062893;28;45469;-74
2023/04/02 15:18:57;;;;;;;0.68;0.47;;;17.20;64.00;;;;;;5065598;28;47670;-74
2023/04/02 15:21:44;;;;;;;0.40;0.40;;;17.20;63.90;;;;;;5048371;28;45400;-74
2023/04/02 15:24:20;;;;;;;0.93;0.52;;;17.20;64.20;;;;;;5054097;28;45219;-74
2023/04/02 15:26:58;;;;;;;1.35;0.60;;;17.20;64.00;;;;;;5045868;28;45183;-74
2023/04/02 15:29:32;;;;;;;1.73;0.43;;;17.20;64.30;;;;;;5046105;28;45623;-74
2023/04/02 15:32:04;;;;;;;1.77;0.52;;;17.20;64.30;;;;;;5065067;28;45658;-74
2023/04/02 15:34:34;;;;;;;1.00;0.45;;;17.30;64.40;;;;;;5065214;28;45275;-73
2023/04/02 15:37:07;;;;;;;1.63;0.70;;;17.30;64.50;;;;;;5058041;28;45412;-74
2023/04/02 15:39:43;;;;;;;0.70;0.50;;;17.30;64.40;;;;;;5065811;28;45372;-74
2023/04/02 15:42:20;;;;;;;1.00;0.52;;;17.30;64.30;;;;;;5065443;28;45126;-74
2023/04/02 15:45:01;;;;;;;1.08;0.50;;;17.30;64.10;;;;;;5066052;28;45309;-74
2023/04/02 15:47:34;;;;;;;0.28;0.28;;;17.30;63.90;;;;;;5065922;28;45358;-74
2023/04/02 15:50:13;;;;;;;1.55;0.63;;;17.30;64.10;;;;;;5059844;28;47161;-74
2023/04/02 15:52:49;;;;;;;0.40;0.40;;;17.30;64.20;;;;;;5047276;28;45329;-74
2023/04/02 15:55:25;;;;;;;0.50;0.40;;;17.30;64.10;;;;;;5066002;28;45113;-74
2023/04/02 15:58:08;;;;;;;0.40;0.38;;;17.30;63.90;;;;;;5060078;28;45440;-75
2023/04/02 16:00:42;;;;;;;0.30;0.30;;;17.20;64.00;;;;;;5045631;28;45771;-74
2023/04/02 16:03:49;;;;;;;1.30;0.40;;;17.20;63.90;;;;;;5045489;28;45161;-74
2023/04/02 16:06:35;;;;;;;1.08;0.50;;;17.20;63.90;;;;;;5058534;28;45149;-74
2023/04/02 16:09:10;;;;;;;0.73;0.40;;;17.30;64.50;;;;;;5066016;28;45222;-74
2023/04/02 16:11:38;;;;;;;1.10;0.38;;;17.30;64.50;;;;;;5065417;28;46539;-75
2023/04/02 16:14:20;;;;;;;0.55;0.40;;;17.30;64.60;;;;;;5065726;28;45379;-75
2023/04/02 16:16:50;;;;;;;0.90;0.63;;;17.40;64.50;;;;;;5062915;28;45175;-75
2023/04/02 16:19:25;;;;;;;1.00;0.40;;;17.40;64.40;;;;;;5064154;28;45591;-75
2023/04/02 16:22:01;;;;;;;1.67;0.57;;;17.40;64.40;;;;;;5065571;28;48246;-75
2023/04/02 16:24:28;;;;;;;0.43;0.30;;;17.40;64.30;;;;;;5065728;28;45054;-75
2023/04/02 16:27:01;;;;;;;0.82;0.43;;;17.30;64.00;;;;;;5066419;28;45191;-74
2023/04/02 16:29:54;;;;;;;0.45;0.35;;;17.30;64.30;;;;;;5066291;28;45053;-75
2023/04/02 16:32:38;;;;;;;1.10;0.60;;;17.30;64.30;;;;;;5060483;28;45469;-75
2023/04/02 16:35:13;;;;;;;0.55;0.40;;;17.30;64.80;;;;;;5062647;28;45270;-76
2023/04/02 16:37:47;;;;;;;0.75;0.60;;;17.20;64.30;;;;;;5065892;28;45426;-75
2023/04/02 16:40:27;;;;;;;1.25;0.57;;;17.20;64.20;;;;;;5065870;28;45198;-75
2023/04/02 16:43:00;;;;;;;2.75;0.40;;;17.20;64.20;;;;;;5065467;28;45126;-75
2023/04/02 16:45:35;;;;;;;0.55;0.40;;;17.20;64.30;;;;;;5065430;28;45276;-76
2023/04/02 16:48:13;;;;;;;0.63;0.40;;;17.20;64.40;;;;;;5065720;28;45331;-75
2023/04/02 16:50:48;;;;;;;0.57;0.50;;;17.20;64.30;;;;;;5065580;28;45076;-75
2023/04/02 16:53:27;;;;;;;0.82;0.50;;;17.20;64.60;;;;;;5065390;28;47400;-76
2023/04/02 16:56:12;;;;;;;1.40;0.50;;;17.20;64.50;;;;;;5068398;28;45336;-75
2023/04/02 16:58:50;;;;;;;0.70;0.45;;;17.20;64.30;;;;;;5068846;28;45341;-75
2023/04/02 17:01:26;;;;;;;2.47;0.45;;;17.30;64.50;;;;;;5069075;28;45585;-76
2023/04/02 17:04:08;;;;;;;1.30;0.50;;;17.30;64.60;;;;;;5068754;28;47659;-76
2023/04/02 17:06:41;;;;;;;1.13;0.30;;;17.30;64.40;;;;;;5068856;28;46113;-75
2023/04/02 17:09:15;;;;;;;0.70;0.57;;;17.30;64.00;;;;;;5068932;28;45206;-76
2023/04/02 17:11:47;;;;;;;0.68;0.50;;;17.30;63.60;;;;;;5068567;28;45222;-76
2023/04/02 17:14:23;;;;;;;0.55;0.30;;;17.30;63.40;;;;;;5066660;28;45624;-75
2023/04/02 17:16:55;;;;;;;1.55;0.40;;;17.30;63.50;;;;;;5068639;28;45613;-76
2023/04/02 17:19:26;;;;;;;1.58;0.50;;;17.20;63.50;;;;;;5068649;28;45223;-75
2023/04/02 18:14:13;;;;;;;0.50;0.50;;;17.70;62.30;;;;;;4928663;28;45147;-76
2023/04/02 18:16:50;;;;;;;1.15;0.60;;;17.80;62.60;;;;;;4938167;28;45212;-76
2023/04/02 18:19:18;;;;;;;1.27;0.50;;;17.40;61.90;;;;;;4985329;28;48402;-76
2023/04/02 18:21:55;;;;;;;0.60;0.47;;;17.40;62.20;;;;;;5067520;28;45568;-75
2023/04/02 18:24:45;;;;;;;0.65;0.50;;;17.40;62.40;;;;;;5067685;28;45231;-75
2023/04/02 18:27:26;;;;;;;0.90;0.40;;;17.40;62.20;;;;;;5067629;28;45567;-75
2023/04/02 18:30:03;;;;;;;0.60;0.50;;;17.40;62.20;;;;;;5067235;28;45445;-75
2023/04/02 18:32:51;;;;;;;1.85;0.60;;;17.40;62.10;;;;;;5067057;28;46054;-75
2023/04/02 18:35:24;;;;;;;1.30;0.60;;;17.40;61.90;;;;;;5067165;28;45415;-75
2023/04/02 18:38:08;;;;;;;0.95;0.50;;;17.40;61.30;;;;;;5067479;28;45420;-75
2023/04/02 18:40:43;;;;;;;0.80;0.50;;;17.40;61.50;;;;;;5066955;28;45320;-75
2023/04/02 18:43:26;;;;;;;0.88;0.40;;;17.40;61.60;;;;;;5064130;28;45131;-75
2023/04/02 20:59:08;;;;;;;0.93;0.60;;;17.80;58.80;;;;;;4980498;28;45314;-75
2023/04/02 21:11:48;;;;;;;1.92;0.82;;;17.20;58.90;;;;;;4913416;28;45335;-75
2023/04/02 21:14:15;;;;;;;2.30;0.65;;;17.30;58.90;;;;;;4987339;28;45390;-75
2023/04/02 21:16:42;;;;;;;0.73;0.50;;;17.20;58.80;;;;;;5030577;28;45360;-75
2023/04/02 21:19:09;;;;;;;0.85;0.60;;;17.30;58.80;;;;;;5048297;28;45385;-74
2023/04/02 21:21:38;;;;;;;1.65;0.70;;;17.30;58.80;;;;;;5047059;28;46645;-75
2023/04/02 21:24:07;;;;;;;2.15;0.93;;;17.30;58.60;;;;;;5068354;28;45817;-75
2023/04/02 21:26:38;;;;;;;1.08;0.60;;;17.30;58.60;;;;;;5068178;28;45149;-75
2023/04/02 21:29:07;;;;;;;1.15;0.50;;;17.30;59.20;;;;;;5068270;28;45539;-75
2023/04/02 21:31:36;;;;;;;0.98;0.68;;;17.30;58.00;;;;;;5067825;28;45419;-75
2023/04/02 21:34:03;;;;;;;1.95;0.75;;;17.30;57.60;;;;;;5068376;28;45230;-75
2023/04/02 21:36:32;;;;;;;0.90;0.60;;;17.30;57.30;;;;;;5067988;28;45237;-75
2023/04/02 21:39:00;;;;;;;0.80;0.60;;;17.30;57.30;;;;;;5068126;28;45164;-75
2023/04/02 21:41:28;;;;;;;1.65;0.45;;;17.20;57.10;;;;;;5067276;28;45217;-75
2023/04/02 21:43:56;;;;;;;1.45;0.65;;;17.20;57.00;;;;;;5054499;28;45304;-75
2023/04/02 21:46:27;;;;;;;0.95;0.70;;;17.20;57.20;;;;;;5048249;28;45195;-75
2023/04/02 21:48:56;;;;;;;1.10;0.57;;;17.20;57.10;;;;;;5047979;28;45232;-71
2023/04/02 21:51:26;;;;;;;1.38;0.80;;;17.20;56.60;;;;;;5047419;28;46505;-75
2023/04/02 21:53:53;;;;;;;0.93;0.70;;;17.20;57.00;;;;;;5051591;28;45396;-75
2023/04/02 21:56:21;;;;;;;1.33;0.80;;;17.20;56.70;;;;;;5067928;28;45214;-75
2023/04/02 21:58:49;;;;;;;1.20;0.70;;;17.20;56.90;;;;;;5055426;28;45184;-75
2023/04/02 22:01:18;;;;;;;1.83;0.55;;;17.30;57.10;;;;;;5047090;28;46437;-75
2023/04/02 22:03:46;;;;;;;1.30;0.65;;;17.30;58.10;;;;;;5047239;28;45436;-75
2023/04/02 22:06:14;;;;;;;1.55;0.80;;;17.30;57.20;;;;;;5047402;28;45341;-74
2023/04/02 22:08:42;;;;;;;0.75;0.50;;;17.30;57.20;;;;;;5047470;28;45177;-75
2023/04/02 22:11:11;;;;;;;1.50;0.85;;;17.30;56.80;;;;;;5047161;28;47051;-75
2023/04/02 22:13:39;;;;;;;1.40;0.80;;;17.30;56.50;;;;;;5047069;28;45654;-75
2023/04/02 22:16:08;;;;;;;1.15;0.80;;;17.30;56.40;;;;;;5047449;28;45289;-75
2023/04/02 22:18:35;;;;;;;1.92;0.80;;;17.20;55.70;;;;;;5055299;28;45394;-75
2023/04/02 22:21:03;;;;;;;1.40;0.68;;;17.20;55.70;;;;;;5052038;28;47719;-75
2023/04/02 22:23:30;;;;;;;0.75;0.68;;;17.20;55.30;;;;;;5049626;28;45272;-74
2023/04/02 22:25:58;;;;;;;1.15;0.52;;;17.20;55.70;;;;;;5046950;28;45304;-74
2023/04/02 22:28:26;;;;;;;1.33;0.57;;;17.20;55.50;;;;;;5047010;28;45501;-74
2023/04/02 22:30:54;;;;;;;1.70;0.65;;;17.20;55.10;;;;;;5046965;28;45515;-74
2023/04/02 22:33:21;;;;;;;1.17;0.68;;;17.20;55.40;;;;;;5054942;28;45185;-75
2023/04/02 22:35:50;;;;;;;0.60;0.50;;;17.20;55.30;;;;;;5063741;28;45503;-74
2023/04/02 22:38:18;;;;;;;0.63;0.50;;;17.20;55.30;;;;;;5054991;28;45616;-74
2023/04/02 22:40:45;;;;;;;1.25;0.60;;;17.20;55.50;;;;;;5064412;28;45516;-74
2023/04/02 22:43:12;;;;;;;1.40;0.60;;;17.20;55.20;;;;;;5055273;28;45146;-75
2023/04/02 22:45:39;;;;;;;0.65;0.50;;;17.20;55.50;;;;;;5046806;28;45261;-74
2023/04/02 22:48:06;;;;;;;1.55;0.65;;;17.20;55.50;;;;;;5046522;28;45198;-74
2023/04/02 22:50:33;;;;;;;1.58;0.77;;;17.20;55.70;;;;;;5055888;28;47431;-74
2023/04/02 22:53:00;;;;;;;2.63;0.55;;;17.20;55.40;;;;;;5064933;28;45254;-74
2023/04/02 22:55:28;;;;;;;0.70;0.60;;;17.20;55.50;;;;;;5062455;28;45171;-73
2023/04/02 22:57:55;;;;;;;2.72;0.75;;;17.20;54.90;;;;;;5046608;28;45356;-74
2023/04/02 23:00:22;;;;;;;1.83;0.70;;;17.20;54.90;;;;;;5045730;28;46833;-74
2023/04/02 23:02:49;;;;;;;1.58;0.70;;;17.20;54.70;;;;;;5046805;28;45244;-74
2023/04/02 23:05:16;;;;;;;0.60;0.60;;;17.20;54.70;;;;;;5054101;28;45162;-74
2023/04/02 23:07:43;;;;;;;0.85;0.60;;;17.20;54.20;;;;;;5066627;28;45142;-74
2023/04/02 23:10:10;;;;;;;1.27;0.60;;;17.20;54.30;;;;;;5050906;28;46337;-74
2023/04/02 23:12:38;;;;;;;0.63;0.63;;;17.20;54.10;;;;;;5045222;28;45690;-74
2023/04/02 23:15:07;;;;;;;1.42;0.70;;;17.20;54.40;;;;;;5046436;28;45163;-74
2023/04/02 23:17:34;;;;;;;1.08;0.63;;;17.20;54.40;;;;;;5046005;28;45858;-74
2023/04/02 23:20:01;;;;;;;1.52;0.80;;;17.20;54.10;;;;;;5046238;28;47629;-74
2023/04/02 23:22:28;;;;;;;0.93;0.70;;;17.20;54.40;;;;;;5046640;28;45212;-76
2023/04/02 23:24:54;;;;;;;1.60;0.65;;;17.20;54.40;;;;;;5061781;28;45150;-75
2023/04/02 23:27:22;;;;;;;1.25;0.75;;;17.20;54.40;;;;;;5046051;28;45266;-74
2023/04/02 23:29:51;;;;;;;1.92;0.70;;;17.20;54.60;;;;;;5045604;28;48504;-74
2023/04/02 23:32:19;;;;;;;0.85;0.70;;;17.20;54.60;;;;;;5045937;28;45178;-74
2023/04/02 23:34:46;;;;;;;1.88;0.73;;;17.20;54.80;;;;;;5066229;28;45359;-74
2023/04/02 23:37:13;;;;;;;1.17;0.80;;;17.20;54.60;;;;;;5066600;28;45381;-73
2023/04/02 23:39:40;;;;;;;1.30;0.70;;;17.20;54.30;;;;;;5048896;28;48396;-74
2023/04/02 23:42:06;;;;;;;1.45;0.80;;;17.20;54.00;;;;;;5065550;28;45253;-75
2023/04/02 23:44:34;;;;;;;1.67;0.80;;;17.20;54.30;;;;;;5064654;28;45348;-74
2023/04/02 23:47:02;;;;;;;1.73;0.70;;;17.20;53.80;;;;;;5045684;28;45064;-74
2023/04/02 23:49:29;;;;;;;1.95;0.70;;;17.20;53.70;;;;;;5045260;28;48323;-74
2023/04/02 23:51:56;;;;;;;1.42;0.70;;;17.20;53.60;;;;;;5045325;28;45162;-74
2023/04/02 23:54:22;;;;;;;1.55;0.77;;;17.20;53.50;;;;;;5052745;28;45240;-74
2023/04/02 23:56:49;;;;;;;2.22;0.82;;;17.20;53.50;;;;;;5065844;28;45468;-74
2023/04/02 23:59:16;;;;;;;0.90;0.80;;;17.20;53.60;;;;;;5065850;28;47310;-75
